Pekin, Ohio
Current Conditions -  °F | °C
As of 4:02 AM on Thursday 27 Nov 2014 (Local Time) from KCAK Reporting Station
Haze Haze  
Wind Chill: 30°   Ceiling: 700
Heat Index: 30°   Visibility: 5mi
Dew Point: 27°   Wind: 3mph
Humidity: 86%   Direction: 310°NW
Pressure: 30"   Gusts: NA
Location:  40.7427°N, 81.0929°W
Report Text: KCAK 270902Z 31003KT 5SM BR BKN007 OVC050 M01/M03 A3000 RMK AO2
Loading
Personal Weather Stations






























Interactive Weather Map New forecast layout! Learn more

10-Day Weather Forecast

Advertisements
Track Severe Weather on mobile